sensor_id;sensor_type;location;lat;lon;timestamp;P1;durP1;ratioP1;P2;durP2;ratioP2
37077;SDS011;22989;55.998;37.212;2022-08-06T00:01:35;23.38;;;14.05;;
37077;SDS011;22989;55.998;37.212;2022-08-06T00:04:00;17.65;;;14.40;;
37077;SDS011;22989;55.998;37.212;2022-08-06T00:06:26;18.75;;;14.70;;
37077;SDS011;22989;55.998;37.212;2022-08-06T00:08:52;23.58;;;15.35;;
37077;SDS011;22989;55.998;37.212;2022-08-06T00:11:18;26.02;;;15.52;;
37077;SDS011;22989;55.998;37.212;2022-08-06T00:13:43;24.42;;;15.23;;
37077;SDS011;22989;55.998;37.212;2022-08-06T00:16:09;20.23;;;14.65;;
37077;SDS011;22989;55.998;37.212;2022-08-06T00:18:35;23.60;;;15.38;;
37077;SDS011;22989;55.998;37.212;2022-08-06T00:21:01;23.23;;;15.80;;
37077;SDS011;22989;55.998;37.212;2022-08-06T00:23:27;22.83;;;15.52;;
37077;SDS011;22989;55.998;37.212;2022-08-06T00:25:53;20.30;;;15.30;;
37077;SDS011;22989;55.998;37.212;2022-08-06T00:28:22;19.08;;;14.90;;
37077;SDS011;22989;55.998;37.212;2022-08-06T00:30:50;24.33;;;15.50;;
37077;SDS011;22989;55.998;37.212;2022-08-06T00:33:16;27.15;;;15.82;;
37077;SDS011;22989;55.998;37.212;2022-08-06T00:35:42;24.33;;;16.45;;
37077;SDS011;22989;55.998;37.212;2022-08-06T00:38:08;26.60;;;16.42;;
37077;SDS011;22989;55.998;37.212;2022-08-06T00:40:34;24.83;;;16.00;;
37077;SDS011;22989;55.998;37.212;2022-08-06T00:43:01;25.52;;;18.00;;
37077;SDS011;22989;55.998;37.212;2022-08-06T00:45:33;31.70;;;16.95;;
37077;SDS011;22989;55.998;37.212;2022-08-06T00:47:59;27.20;;;17.08;;
37077;SDS011;22989;55.998;37.212;2022-08-06T00:50:26;30.33;;;16.45;;
37077;SDS011;22989;55.998;37.212;2022-08-06T00:52:52;30.83;;;17.73;;
37077;SDS011;22989;55.998;37.212;2022-08-06T00:55:19;25.40;;;17.00;;
37077;SDS011;22989;55.998;37.212;2022-08-06T00:57:45;29.88;;;17.33;;
37077;SDS011;22989;55.998;37.212;2022-08-06T01:00:12;28.50;;;17.55;;
37077;SDS011;22989;55.998;37.212;2022-08-06T01:02:38;24.50;;;17.23;;
37077;SDS011;22989;55.998;37.212;2022-08-06T01:05:04;26.85;;;17.77;;
37077;SDS011;22989;55.998;37.212;2022-08-06T01:07:31;26.58;;;17.30;;
37077;SDS011;22989;55.998;37.212;2022-08-06T01:09:56;27.80;;;17.35;;
37077;SDS011;22989;55.998;37.212;2022-08-06T01:12:22;31.73;;;17.52;;
37077;SDS011;22989;55.998;37.212;2022-08-06T01:14:48;28.45;;;16.95;;
37077;SDS011;22989;55.998;37.212;2022-08-06T01:19:57;31.40;;;17.20;;
37077;SDS011;22989;55.998;37.212;2022-08-06T01:22:44;28.13;;;17.00;;
37077;SDS011;22989;55.998;37.212;2022-08-06T01:28:26;21.83;;;16.60;;
37077;SDS011;22989;55.998;37.212;2022-08-06T01:31:03;23.70;;;17.42;;
37077;SDS011;22989;55.998;37.212;2022-08-06T01:33:33;25.90;;;16.83;;
37077;SDS011;22989;55.998;37.212;2022-08-06T01:36:05;24.55;;;17.20;;
37077;SDS011;22989;55.998;37.212;2022-08-06T01:38:36;30.05;;;17.58;;
37077;SDS011;22989;55.998;37.212;2022-08-06T01:41:07;29.70;;;17.67;;
37077;SDS011;22989;55.998;37.212;2022-08-06T01:43:35;30.02;;;17.30;;
37077;SDS011;22989;55.998;37.212;2022-08-06T01:46:03;28.95;;;17.40;;
37077;SDS011;22989;55.998;37.212;2022-08-06T01:48:32;24.38;;;16.95;;
37077;SDS011;22989;55.998;37.212;2022-08-06T01:51:02;27.95;;;17.25;;
37077;SDS011;22989;55.998;37.212;2022-08-06T01:53:34;28.38;;;17.17;;
37077;SDS011;22989;55.998;37.212;2022-08-06T01:56:04;27.55;;;17.60;;
37077;SDS011;22989;55.998;37.212;2022-08-06T01:58:36;29.17;;;17.17;;
37077;SDS011;22989;55.998;37.212;2022-08-06T02:01:08;26.65;;;17.90;;
37077;SDS011;22989;55.998;37.212;2022-08-06T02:03:47;29.55;;;17.98;;
37077;SDS011;22989;55.998;37.212;2022-08-06T02:06:17;28.48;;;18.52;;
37077;SDS011;22989;55.998;37.212;2022-08-06T02:08:46;28.85;;;18.38;;
37077;SDS011;22989;55.998;37.212;2022-08-06T02:11:14;28.95;;;18.55;;
37077;SDS011;22989;55.998;37.212;2022-08-06T02:13:40;30.25;;;18.50;;
37077;SDS011;22989;55.998;37.212;2022-08-06T02:16:08;27.88;;;17.30;;
37077;SDS011;22989;55.998;37.212;2022-08-06T02:18:37;28.40;;;16.92;;
37077;SDS011;22989;55.998;37.212;2022-08-06T02:21:08;24.10;;;17.38;;
37077;SDS011;22989;55.998;37.212;2022-08-06T02:23:37;29.55;;;18.25;;
37077;SDS011;22989;55.998;37.212;2022-08-06T02:26:05;25.25;;;17.65;;
37077;SDS011;22989;55.998;37.212;2022-08-06T02:28:31;22.92;;;16.75;;
37077;SDS011;22989;55.998;37.212;2022-08-06T02:31:01;24.90;;;18.05;;
37077;SDS011;22989;55.998;37.212;2022-08-06T02:33:27;26.67;;;18.52;;
37077;SDS011;22989;55.998;37.212;2022-08-06T02:35:58;25.55;;;17.50;;
37077;SDS011;22989;55.998;37.212;2022-08-06T02:38:28;26.40;;;17.65;;
37077;SDS011;22989;55.998;37.212;2022-08-06T02:41:18;34.13;;;17.17;;
37077;SDS011;22989;55.998;37.212;2022-08-06T02:43:52;26.27;;;18.60;;
37077;SDS011;22989;55.998;37.212;2022-08-06T02:48:52;32.20;;;17.10;;
37077;SDS011;22989;55.998;37.212;2022-08-06T02:51:34;25.85;;;17.38;;
37077;SDS011;22989;55.998;37.212;2022-08-06T02:56:45;23.67;;;16.17;;
37077;SDS011;22989;55.998;37.212;2022-08-06T02:59:17;24.08;;;16.95;;
37077;SDS011;22989;55.998;37.212;2022-08-06T03:01:55;35.22;;;19.13;;
37077;SDS011;22989;55.998;37.212;2022-08-06T03:04:23;22.00;;;16.52;;
37077;SDS011;22989;55.998;37.212;2022-08-06T03:06:52;24.83;;;17.17;;
37077;SDS011;22989;55.998;37.212;2022-08-06T03:09:19;22.45;;;16.48;;
37077;SDS011;22989;55.998;37.212;2022-08-06T03:11:46;27.73;;;16.67;;
37077;SDS011;22989;55.998;37.212;2022-08-06T03:14:14;24.25;;;17.27;;
37077;SDS011;22989;55.998;37.212;2022-08-06T03:16:41;30.48;;;17.52;;
37077;SDS011;22989;55.998;37.212;2022-08-06T03:19:08;25.73;;;18.23;;
37077;SDS011;22989;55.998;37.212;2022-08-06T03:21:35;30.23;;;17.90;;
37077;SDS011;22989;55.998;37.212;2022-08-06T03:24:02;24.00;;;17.02;;
37077;SDS011;22989;55.998;37.212;2022-08-06T03:26:30;25.50;;;17.25;;
37077;SDS011;22989;55.998;37.212;2022-08-06T03:28:57;26.25;;;17.27;;
37077;SDS011;22989;55.998;37.212;2022-08-06T03:31:25;25.65;;;16.55;;
37077;SDS011;22989;55.998;37.212;2022-08-06T03:33:52;23.75;;;15.45;;
37077;SDS011;22989;55.998;37.212;2022-08-06T03:36:19;25.70;;;15.88;;
37077;SDS011;22989;55.998;37.212;2022-08-06T03:38:49;25.10;;;16.17;;
37077;SDS011;22989;55.998;37.212;2022-08-06T03:41:18;24.60;;;15.93;;
37077;SDS011;22989;55.998;37.212;2022-08-06T03:43:44;28.30;;;16.15;;
37077;SDS011;22989;55.998;37.212;2022-08-06T03:46:10;17.60;;;14.68;;
37077;SDS011;22989;55.998;37.212;2022-08-06T03:48:39;22.42;;;15.70;;
37077;SDS011;22989;55.998;37.212;2022-08-06T03:51:14;25.17;;;14.90;;
37077;SDS011;22989;55.998;37.212;2022-08-06T03:53:43;21.50;;;14.85;;
37077;SDS011;22989;55.998;37.212;2022-08-06T03:56:14;24.30;;;15.10;;
37077;SDS011;22989;55.998;37.212;2022-08-06T03:58:45;22.13;;;14.63;;
37077;SDS011;22989;55.998;37.212;2022-08-06T04:01:14;21.00;;;16.05;;
37077;SDS011;22989;55.998;37.212;2022-08-06T04:03:42;19.98;;;14.07;;
37077;SDS011;22989;55.998;37.212;2022-08-06T04:06:10;29.15;;;15.10;;
37077;SDS011;22989;55.998;37.212;2022-08-06T04:08:38;21.25;;;15.13;;
37077;SDS011;22989;55.998;37.212;2022-08-06T04:11:05;22.63;;;15.00;;
37077;SDS011;22989;55.998;37.212;2022-08-06T04:13:33;26.10;;;15.73;;
37077;SDS011;22989;55.998;37.212;2022-08-06T04:16:01;22.10;;;14.98;;
37077;SDS011;22989;55.998;37.212;2022-08-06T04:18:28;20.25;;;15.18;;
37077;SDS011;22989;55.998;37.212;2022-08-06T04:21:01;20.95;;;14.15;;
37077;SDS011;22989;55.998;37.212;2022-08-06T04:23:31;27.08;;;15.15;;
37077;SDS011;22989;55.998;37.212;2022-08-06T04:25:57;25.27;;;15.15;;
37077;SDS011;22989;55.998;37.212;2022-08-06T04:28:27;24.02;;;15.15;;
37077;SDS011;22989;55.998;37.212;2022-08-06T04:30:55;23.98;;;14.60;;
37077;SDS011;22989;55.998;37.212;2022-08-06T04:33:24;22.92;;;14.48;;
37077;SDS011;22989;55.998;37.212;2022-08-06T04:35:52;21.25;;;14.65;;
37077;SDS011;22989;55.998;37.212;2022-08-06T04:38:20;20.27;;;14.10;;
37077;SDS011;22989;55.998;37.212;2022-08-06T04:40:47;21.52;;;13.65;;
37077;SDS011;22989;55.998;37.212;2022-08-06T04:43:13;24.10;;;14.52;;
37077;SDS011;22989;55.998;37.212;2022-08-06T04:45:40;26.27;;;16.63;;
37077;SDS011;22989;55.998;37.212;2022-08-06T04:48:10;24.77;;;14.00;;
37077;SDS011;22989;55.998;37.212;2022-08-06T04:50:38;18.48;;;14.02;;
37077;SDS011;22989;55.998;37.212;2022-08-06T04:53:08;31.48;;;20.65;;
37077;SDS011;22989;55.998;37.212;2022-08-06T04:55:35;20.35;;;13.48;;
37077;SDS011;22989;55.998;37.212;2022-08-06T04:58:02;26.15;;;14.30;;
37077;SDS011;22989;55.998;37.212;2022-08-06T05:00:33;16.50;;;13.52;;
37077;SDS011;22989;55.998;37.212;2022-08-06T05:05:26;21.08;;;14.05;;
37077;SDS011;22989;55.998;37.212;2022-08-06T05:07:55;16.17;;;13.00;;
37077;SDS011;22989;55.998;37.212;2022-08-06T05:10:25;19.10;;;14.00;;
37077;SDS011;22989;55.998;37.212;2022-08-06T05:13:00;19.42;;;13.73;;
37077;SDS011;22989;55.998;37.212;2022-08-06T05:15:45;21.98;;;13.23;;
37077;SDS011;22989;55.998;37.212;2022-08-06T05:18:20;18.23;;;12.90;;
37077;SDS011;22989;55.998;37.212;2022-08-06T05:20:59;23.27;;;13.15;;
37077;SDS011;22989;55.998;37.212;2022-08-06T05:23:36;16.33;;;13.13;;
37077;SDS011;22989;55.998;37.212;2022-08-06T05:26:06;19.20;;;12.98;;
37077;SDS011;22989;55.998;37.212;2022-08-06T05:28:32;19.02;;;12.73;;
37077;SDS011;22989;55.998;37.212;2022-08-06T05:30:58;15.57;;;12.35;;
37077;SDS011;22989;55.998;37.212;2022-08-06T05:35:54;20.15;;;13.27;;
37077;SDS011;22989;55.998;37.212;2022-08-06T05:38:20;18.88;;;12.68;;
37077;SDS011;22989;55.998;37.212;2022-08-06T05:40:46;19.17;;;12.38;;
37077;SDS011;22989;55.998;37.212;2022-08-06T05:43:12;19.00;;;12.93;;
37077;SDS011;22989;55.998;37.212;2022-08-06T05:45:38;17.40;;;12.13;;
37077;SDS011;22989;55.998;37.212;2022-08-06T05:48:06;19.50;;;12.48;;
37077;SDS011;22989;55.998;37.212;2022-08-06T05:50:35;16.77;;;12.40;;
37077;SDS011;22989;55.998;37.212;2022-08-06T05:53:08;20.92;;;11.93;;
37077;SDS011;22989;55.998;37.212;2022-08-06T05:55:59;21.95;;;12.27;;
37077;SDS011;22989;55.998;37.212;2022-08-06T05:58:47;21.48;;;12.05;;
37077;SDS011;22989;55.998;37.212;2022-08-06T06:01:15;18.92;;;12.02;;
37077;SDS011;22989;55.998;37.212;2022-08-06T06:03:41;17.67;;;11.75;;
37077;SDS011;22989;55.998;37.212;2022-08-06T06:06:08;21.40;;;12.02;;
37077;SDS011;22989;55.998;37.212;2022-08-06T06:08:35;25.63;;;11.48;;
37077;SDS011;22989;55.998;37.212;2022-08-06T06:11:02;24.73;;;12.65;;
37077;SDS011;22989;55.998;37.212;2022-08-06T06:13:28;21.95;;;12.40;;
37077;SDS011;22989;55.998;37.212;2022-08-06T06:15:57;20.60;;;12.00;;
37077;SDS011;22989;55.998;37.212;2022-08-06T06:23:48;20.67;;;12.50;;
37077;SDS011;22989;55.998;37.212;2022-08-06T06:26:27;26.25;;;11.52;;
37077;SDS011;22989;55.998;37.212;2022-08-06T06:29:06;23.25;;;12.35;;
37077;SDS011;22989;55.998;37.212;2022-08-06T06:31:44;24.20;;;11.45;;
37077;SDS011;22989;55.998;37.212;2022-08-06T06:37:05;21.50;;;11.73;;
37077;SDS011;22989;55.998;37.212;2022-08-06T06:39:42;18.10;;;11.35;;
37077;SDS011;22989;55.998;37.212;2022-08-06T06:42:28;21.42;;;11.35;;
37077;SDS011;22989;55.998;37.212;2022-08-06T06:45:24;26.92;;;12.20;;
37077;SDS011;22989;55.998;37.212;2022-08-06T06:48:08;19.38;;;10.70;;
37077;SDS011;22989;55.998;37.212;2022-08-06T06:50:45;20.48;;;10.40;;
37077;SDS011;22989;55.998;37.212;2022-08-06T06:53:13;16.33;;;10.52;;
37077;SDS011;22989;55.998;37.212;2022-08-06T06:55:43;20.95;;;10.30;;
37077;SDS011;22989;55.998;37.212;2022-08-06T06:58:21;22.67;;;10.50;;
37077;SDS011;22989;55.998;37.212;2022-08-06T07:00:53;17.58;;;10.25;;
37077;SDS011;22989;55.998;37.212;2022-08-06T07:03:20;18.45;;;9.40;;
37077;SDS011;22989;55.998;37.212;2022-08-06T07:05:48;16.83;;;9.88;;
37077;SDS011;22989;55.998;37.212;2022-08-06T07:08:17;21.15;;;9.45;;
37077;SDS011;22989;55.998;37.212;2022-08-06T07:10:45;19.58;;;9.85;;
37077;SDS011;22989;55.998;37.212;2022-08-06T07:13:12;13.93;;;9.55;;
37077;SDS011;22989;55.998;37.212;2022-08-06T07:15:40;21.65;;;9.90;;
37077;SDS011;22989;55.998;37.212;2022-08-06T07:18:07;16.05;;;9.73;;
37077;SDS011;22989;55.998;37.212;2022-08-06T07:20:33;14.73;;;10.27;;
37077;SDS011;22989;55.998;37.212;2022-08-06T07:23:02;14.82;;;8.88;;
37077;SDS011;22989;55.998;37.212;2022-08-06T07:25:30;14.75;;;9.52;;
37077;SDS011;22989;55.998;37.212;2022-08-06T07:28:03;16.30;;;9.95;;
37077;SDS011;22989;55.998;37.212;2022-08-06T07:30:29;19.45;;;8.70;;
37077;SDS011;22989;55.998;37.212;2022-08-06T07:32:58;14.18;;;8.43;;
37077;SDS011;22989;55.998;37.212;2022-08-06T07:35:24;14.27;;;9.00;;
37077;SDS011;22989;55.998;37.212;2022-08-06T07:37:54;22.67;;;9.00;;
37077;SDS011;22989;55.998;37.212;2022-08-06T07:40:22;12.68;;;9.15;;
37077;SDS011;22989;55.998;37.212;2022-08-06T07:43:16;16.23;;;9.30;;
37077;SDS011;22989;55.998;37.212;2022-08-06T07:45:44;17.45;;;9.25;;
37077;SDS011;22989;55.998;37.212;2022-08-06T07:48:13;18.08;;;9.30;;
37077;SDS011;22989;55.998;37.212;2022-08-06T07:50:44;19.42;;;10.07;;
37077;SDS011;22989;55.998;37.212;2022-08-06T07:53:13;21.02;;;10.38;;
37077;SDS011;22989;55.998;37.212;2022-08-06T07:55:40;14.55;;;9.02;;
37077;SDS011;22989;55.998;37.212;2022-08-06T07:58:08;16.10;;;10.63;;
37077;SDS011;22989;55.998;37.212;2022-08-06T08:00:36;17.50;;;9.98;;
37077;SDS011;22989;55.998;37.212;2022-08-06T08:03:02;13.75;;;9.75;;
37077;SDS011;22989;55.998;37.212;2022-08-06T08:05:48;12.55;;;9.65;;
37077;SDS011;22989;55.998;37.212;2022-08-06T08:08:33;20.90;;;8.43;;
37077;SDS011;22989;55.998;37.212;2022-08-06T08:11:00;20.52;;;9.30;;
37077;SDS011;22989;55.998;37.212;2022-08-06T08:13:26;14.38;;;8.52;;
37077;SDS011;22989;55.998;37.212;2022-08-06T08:15:56;22.08;;;8.60;;
37077;SDS011;22989;55.998;37.212;2022-08-06T08:18:30;13.68;;;8.43;;
37077;SDS011;22989;55.998;37.212;2022-08-06T08:21:01;15.40;;;8.45;;
37077;SDS011;22989;55.998;37.212;2022-08-06T08:23:28;10.75;;;7.78;;
37077;SDS011;22989;55.998;37.212;2022-08-06T08:25:59;11.85;;;7.80;;
37077;SDS011;22989;55.998;37.212;2022-08-06T08:28:26;14.77;;;8.00;;
37077;SDS011;22989;55.998;37.212;2022-08-06T08:30:52;14.98;;;7.78;;
37077;SDS011;22989;55.998;37.212;2022-08-06T08:33:19;21.05;;;7.75;;
37077;SDS011;22989;55.998;37.212;2022-08-06T08:35:48;11.70;;;7.18;;
37077;SDS011;22989;55.998;37.212;2022-08-06T08:38:14;13.82;;;6.90;;
37077;SDS011;22989;55.998;37.212;2022-08-06T08:40:40;16.25;;;7.45;;
37077;SDS011;22989;55.998;37.212;2022-08-06T08:43:07;19.45;;;7.50;;
37077;SDS011;22989;55.998;37.212;2022-08-06T08:45:37;16.80;;;7.22;;
37077;SDS011;22989;55.998;37.212;2022-08-06T08:48:08;12.57;;;6.88;;
37077;SDS011;22989;55.998;37.212;2022-08-06T08:50:36;11.45;;;7.28;;
37077;SDS011;22989;55.998;37.212;2022-08-06T08:53:15;20.77;;;7.40;;
37077;SDS011;22989;55.998;37.212;2022-08-06T08:55:47;10.90;;;6.88;;
37077;SDS011;22989;55.998;37.212;2022-08-06T08:58:13;13.43;;;7.03;;
37077;SDS011;22989;55.998;37.212;2022-08-06T09:00:40;11.98;;;7.18;;
37077;SDS011;22989;55.998;37.212;2022-08-06T09:03:06;11.48;;;7.60;;
37077;SDS011;22989;55.998;37.212;2022-08-06T09:05:32;18.58;;;7.47;;
37077;SDS011;22989;55.998;37.212;2022-08-06T09:07:59;14.32;;;7.05;;
37077;SDS011;22989;55.998;37.212;2022-08-06T09:10:28;11.77;;;6.47;;
37077;SDS011;22989;55.998;37.212;2022-08-06T09:12:55;18.65;;;6.65;;
37077;SDS011;22989;55.998;37.212;2022-08-06T09:15:22;16.63;;;7.05;;
37077;SDS011;22989;55.998;37.212;2022-08-06T09:17:48;20.83;;;6.97;;
37077;SDS011;22989;55.998;37.212;2022-08-06T09:20:14;14.07;;;7.18;;
37077;SDS011;22989;55.998;37.212;2022-08-06T09:22:41;16.88;;;6.93;;
37077;SDS011;22989;55.998;37.212;2022-08-06T09:28:00;14.40;;;7.40;;
37077;SDS011;22989;55.998;37.212;2022-08-06T09:30:26;11.18;;;7.30;;
37077;SDS011;22989;55.998;37.212;2022-08-06T09:32:52;14.25;;;7.25;;
37077;SDS011;22989;55.998;37.212;2022-08-06T09:37:59;14.88;;;7.53;;
37077;SDS011;22989;55.998;37.212;2022-08-06T09:40:34;11.75;;;7.05;;
37077;SDS011;22989;55.998;37.212;2022-08-06T09:43:00;12.27;;;7.25;;
37077;SDS011;22989;55.998;37.212;2022-08-06T09:45:26;8.55;;;7.65;;
37077;SDS011;22989;55.998;37.212;2022-08-06T09:48:26;14.02;;;8.18;;
37077;SDS011;22989;55.998;37.212;2022-08-06T09:50:45;14.65;;;7.55;;
37077;SDS011;22989;55.998;37.212;2022-08-06T09:53:12;12.20;;;7.20;;
37077;SDS011;22989;55.998;37.212;2022-08-06T09:55:39;11.10;;;7.63;;
37077;SDS011;22989;55.998;37.212;2022-08-06T09:58:04;10.75;;;7.57;;
37077;SDS011;22989;55.998;37.212;2022-08-06T10:00:31;13.77;;;8.00;;
37077;SDS011;22989;55.998;37.212;2022-08-06T10:02:59;11.02;;;7.72;;
37077;SDS011;22989;55.998;37.212;2022-08-06T10:05:31;12.40;;;7.65;;
37077;SDS011;22989;55.998;37.212;2022-08-06T10:08:02;14.85;;;8.07;;
37077;SDS011;22989;55.998;37.212;2022-08-06T10:10:48;20.35;;;7.85;;
37077;SDS011;22989;55.998;37.212;2022-08-06T10:13:18;12.30;;;7.65;;
37077;SDS011;22989;55.998;37.212;2022-08-06T10:15:52;13.13;;;7.50;;
37077;SDS011;22989;55.998;37.212;2022-08-06T10:18:36;12.73;;;7.65;;
37077;SDS011;22989;55.998;37.212;2022-08-06T10:21:06;14.63;;;7.90;;
37077;SDS011;22989;55.998;37.212;2022-08-06T10:23:35;13.38;;;7.65;;
37077;SDS011;22989;55.998;37.212;2022-08-06T10:26:04;9.35;;;7.35;;
37077;SDS011;22989;55.998;37.212;2022-08-06T10:28:33;13.07;;;7.57;;
37077;SDS011;22989;55.998;37.212;2022-08-06T10:31:05;15.70;;;7.53;;
37077;SDS011;22989;55.998;37.212;2022-08-06T10:33:34;16.95;;;7.93;;
37077;SDS011;22989;55.998;37.212;2022-08-06T10:36:08;12.90;;;7.72;;
37077;SDS011;22989;55.998;37.212;2022-08-06T10:38:37;13.37;;;7.17;;
37077;SDS011;22989;55.998;37.212;2022-08-06T10:41:08;15.15;;;7.28;;
37077;SDS011;22989;55.998;37.212;2022-08-06T10:43:36;8.07;;;6.95;;
37077;SDS011;22989;55.998;37.212;2022-08-06T10:46:07;11.98;;;7.30;;
37077;SDS011;22989;55.998;37.212;2022-08-06T10:48:35;13.60;;;6.88;;
37077;SDS011;22989;55.998;37.212;2022-08-06T10:51:03;12.35;;;7.20;;
37077;SDS011;22989;55.998;37.212;2022-08-06T10:53:30;12.23;;;7.20;;
37077;SDS011;22989;55.998;37.212;2022-08-06T10:55:59;12.90;;;7.55;;
37077;SDS011;22989;55.998;37.212;2022-08-06T10:58:27;8.82;;;6.85;;
37077;SDS011;22989;55.998;37.212;2022-08-06T11:00:55;13.93;;;6.93;;
37077;SDS011;22989;55.998;37.212;2022-08-06T11:03:27;11.38;;;6.50;;
37077;SDS011;22989;55.998;37.212;2022-08-06T11:08:56;8.95;;;6.60;;
37077;SDS011;22989;55.998;37.212;2022-08-06T11:14:23;11.65;;;6.28;;
37077;SDS011;22989;55.998;37.212;2022-08-06T11:16:57;14.05;;;6.15;;
37077;SDS011;22989;55.998;37.212;2022-08-06T11:19:43;10.57;;;8.40;;
37077;SDS011;22989;55.998;37.212;2022-08-06T11:25:05;10.65;;;6.60;;
37077;SDS011;22989;55.998;37.212;2022-08-06T11:27:55;11.52;;;6.03;;
37077;SDS011;22989;55.998;37.212;2022-08-06T11:30:37;10.40;;;6.20;;
37077;SDS011;22989;55.998;37.212;2022-08-06T11:33:09;11.93;;;6.47;;
37077;SDS011;22989;55.998;37.212;2022-08-06T11:38:12;12.07;;;7.07;;
37077;SDS011;22989;55.998;37.212;2022-08-06T11:46:22;10.52;;;6.70;;
37077;SDS011;22989;55.998;37.212;2022-08-06T11:56:36;13.30;;;6.45;;
37077;SDS011;22989;55.998;37.212;2022-08-06T11:59:33;13.40;;;6.28;;
37077;SDS011;22989;55.998;37.212;2022-08-06T12:02:07;8.90;;;6.05;;
37077;SDS011;22989;55.998;37.212;2022-08-06T12:07:22;13.90;;;6.15;;
37077;SDS011;22989;55.998;37.212;2022-08-06T12:17:42;9.50;;;6.25;;
37077;SDS011;22989;55.998;37.212;2022-08-06T12:20:35;8.50;;;6.03;;
37077;SDS011;22989;55.998;37.212;2022-08-06T12:23:02;18.73;;;6.90;;
37077;SDS011;22989;55.998;37.212;2022-08-06T12:25:31;11.15;;;6.20;;
37077;SDS011;22989;55.998;37.212;2022-08-06T12:27:59;10.30;;;6.13;;
37077;SDS011;22989;55.998;37.212;2022-08-06T12:30:26;12.15;;;6.40;;
37077;SDS011;22989;55.998;37.212;2022-08-06T12:32:59;12.43;;;6.20;;
37077;SDS011;22989;55.998;37.212;2022-08-06T12:35:25;8.63;;;6.53;;
37077;SDS011;22989;55.998;37.212;2022-08-06T12:37:51;9.57;;;6.72;;
37077;SDS011;22989;55.998;37.212;2022-08-06T12:40:18;8.05;;;5.90;;
37077;SDS011;22989;55.998;37.212;2022-08-06T12:46:00;12.95;;;6.45;;
37077;SDS011;22989;55.998;37.212;2022-08-06T12:48:28;15.40;;;8.00;;
37077;SDS011;22989;55.998;37.212;2022-08-06T12:51:05;14.77;;;6.70;;
37077;SDS011;22989;55.998;37.212;2022-08-06T12:53:32;10.77;;;7.10;;
37077;SDS011;22989;55.998;37.212;2022-08-06T12:56:06;10.23;;;6.50;;
37077;SDS011;22989;55.998;37.212;2022-08-06T13:01:02;17.95;;;6.93;;
37077;SDS011;22989;55.998;37.212;2022-08-06T13:03:30;16.40;;;6.20;;
37077;SDS011;22989;55.998;37.212;2022-08-06T13:05:58;9.90;;;5.75;;
37077;SDS011;22989;55.998;37.212;2022-08-06T13:08:25;12.48;;;6.75;;
37077;SDS011;22989;55.998;37.212;2022-08-06T13:10:52;9.73;;;5.70;;
37077;SDS011;22989;55.998;37.212;2022-08-06T13:13:19;8.38;;;5.90;;
37077;SDS011;22989;55.998;37.212;2022-08-06T13:15:59;8.48;;;5.88;;
37077;SDS011;22989;55.998;37.212;2022-08-06T13:18:29;17.60;;;6.82;;
37077;SDS011;22989;55.998;37.212;2022-08-06T13:20:55;7.10;;;6.20;;
37077;SDS011;22989;55.998;37.212;2022-08-06T13:23:34;10.05;;;6.20;;
37077;SDS011;22989;55.998;37.212;2022-08-06T13:29:13;14.35;;;7.35;;
37077;SDS011;22989;55.998;37.212;2022-08-06T13:31:44;11.32;;;5.97;;
37077;SDS011;22989;55.998;37.212;2022-08-06T13:34:12;10.23;;;7.78;;
37077;SDS011;22989;55.998;37.212;2022-08-06T13:36:41;9.88;;;5.95;;
37077;SDS011;22989;55.998;37.212;2022-08-06T13:39:18;7.90;;;5.82;;
37077;SDS011;22989;55.998;37.212;2022-08-06T13:41:47;10.02;;;5.90;;
37077;SDS011;22989;55.998;37.212;2022-08-06T13:44:42;11.27;;;6.80;;
37077;SDS011;22989;55.998;37.212;2022-08-06T13:47:10;15.57;;;6.15;;
37077;SDS011;22989;55.998;37.212;2022-08-06T13:49:41;9.48;;;5.60;;
37077;SDS011;22989;55.998;37.212;2022-08-06T13:52:08;6.28;;;5.00;;
37077;SDS011;22989;55.998;37.212;2022-08-06T13:54:35;11.70;;;5.97;;
37077;SDS011;22989;55.998;37.212;2022-08-06T13:57:01;7.63;;;5.88;;
37077;SDS011;22989;55.998;37.212;2022-08-06T13:59:27;9.00;;;5.75;;
37077;SDS011;22989;55.998;37.212;2022-08-06T14:01:58;9.40;;;5.50;;
37077;SDS011;22989;55.998;37.212;2022-08-06T14:04:26;12.13;;;5.93;;
37077;SDS011;22989;55.998;37.212;2022-08-06T14:06:53;8.88;;;5.75;;
37077;SDS011;22989;55.998;37.212;2022-08-06T14:09:20;7.78;;;6.45;;
37077;SDS011;22989;55.998;37.212;2022-08-06T14:11:48;7.18;;;5.38;;
37077;SDS011;22989;55.998;37.212;2022-08-06T14:14:17;9.98;;;5.90;;
37077;SDS011;22989;55.998;37.212;2022-08-06T14:16:43;11.10;;;7.95;;
37077;SDS011;22989;55.998;37.212;2022-08-06T14:19:09;9.77;;;6.80;;
37077;SDS011;22989;55.998;37.212;2022-08-06T14:21:35;7.60;;;6.25;;
37077;SDS011;22989;55.998;37.212;2022-08-06T14:24:00;11.45;;;6.05;;
37077;SDS011;22989;55.998;37.212;2022-08-06T14:26:26;8.30;;;5.72;;
37077;SDS011;22989;55.998;37.212;2022-08-06T14:28:52;9.20;;;6.00;;
37077;SDS011;22989;55.998;37.212;2022-08-06T14:31:18;8.07;;;5.82;;
37077;SDS011;22989;55.998;37.212;2022-08-06T14:33:44;12.45;;;5.95;;
37077;SDS011;22989;55.998;37.212;2022-08-06T14:36:10;9.10;;;6.10;;
37077;SDS011;22989;55.998;37.212;2022-08-06T14:38:35;12.30;;;6.43;;
37077;SDS011;22989;55.998;37.212;2022-08-06T14:41:02;9.40;;;5.47;;
37077;SDS011;22989;55.998;37.212;2022-08-06T14:43:46;11.57;;;5.93;;
37077;SDS011;22989;55.998;37.212;2022-08-06T14:46:31;13.82;;;6.32;;
37077;SDS011;22989;55.998;37.212;2022-08-06T14:48:59;8.05;;;6.22;;
37077;SDS011;22989;55.998;37.212;2022-08-06T14:51:26;8.93;;;6.22;;
37077;SDS011;22989;55.998;37.212;2022-08-06T14:53:53;8.45;;;6.25;;
37077;SDS011;22989;55.998;37.212;2022-08-06T14:56:19;12.38;;;6.13;;
37077;SDS011;22989;55.998;37.212;2022-08-06T14:58:44;11.02;;;6.95;;
37077;SDS011;22989;55.998;37.212;2022-08-06T15:01:10;10.35;;;5.78;;
37077;SDS011;22989;55.998;37.212;2022-08-06T15:03:36;10.15;;;5.65;;
37077;SDS011;22989;55.998;37.212;2022-08-06T15:06:01;13.45;;;6.00;;
37077;SDS011;22989;55.998;37.212;2022-08-06T15:08:27;7.97;;;5.63;;
37077;SDS011;22989;55.998;37.212;2022-08-06T15:10:53;9.95;;;5.88;;
37077;SDS011;22989;55.998;37.212;2022-08-06T15:13:19;10.88;;;6.35;;
37077;SDS011;22989;55.998;37.212;2022-08-06T15:15:44;12.02;;;6.65;;
37077;SDS011;22989;55.998;37.212;2022-08-06T15:18:10;14.15;;;6.20;;
37077;SDS011;22989;55.998;37.212;2022-08-06T15:20:36;9.32;;;6.07;;
37077;SDS011;22989;55.998;37.212;2022-08-06T15:23:02;12.07;;;6.20;;
37077;SDS011;22989;55.998;37.212;2022-08-06T15:25:29;7.72;;;5.90;;
37077;SDS011;22989;55.998;37.212;2022-08-06T15:27:55;8.82;;;6.00;;
37077;SDS011;22989;55.998;37.212;2022-08-06T15:30:21;10.10;;;6.25;;
37077;SDS011;22989;55.998;37.212;2022-08-06T15:32:46;6.60;;;5.97;;
37077;SDS011;22989;55.998;37.212;2022-08-06T15:35:12;10.70;;;5.60;;
37077;SDS011;22989;55.998;37.212;2022-08-06T15:37:38;10.13;;;6.00;;
37077;SDS011;22989;55.998;37.212;2022-08-06T15:40:05;12.60;;;6.20;;
37077;SDS011;22989;55.998;37.212;2022-08-06T15:42:31;11.13;;;6.40;;
37077;SDS011;22989;55.998;37.212;2022-08-06T15:44:56;12.77;;;6.10;;